sensor_id;sensor_type;location;lat;lon;timestamp;P1;durP1;ratioP1;P2;durP2;ratioP2
15142;SDS011;7672;50.834;6.286;2023-11-19T00:00:08;0.50;;;0.50;;
15142;SDS011;7672;50.834;6.286;2023-11-19T00:02:40;1.73;;;0.70;;
15142;SDS011;7672;50.834;6.286;2023-11-19T00:05:09;0.50;;;0.50;;
15142;SDS011;7672;50.834;6.286;2023-11-19T00:07:39;0.57;;;0.57;;
15142;SDS011;7672;50.834;6.286;2023-11-19T00:10:16;0.67;;;0.57;;
15142;SDS011;7672;50.834;6.286;2023-11-19T00:12:48;1.17;;;0.60;;
15142;SDS011;7672;50.834;6.286;2023-11-19T00:15:16;1.00;;;0.70;;
15142;SDS011;7672;50.834;6.286;2023-11-19T00:17:45;0.70;;;0.70;;
15142;SDS011;7672;50.834;6.286;2023-11-19T00:20:14;0.53;;;0.47;;
15142;SDS011;7672;50.834;6.286;2023-11-19T00:22:42;0.50;;;0.50;;
15142;SDS011;7672;50.834;6.286;2023-11-19T00:25:12;0.50;;;0.50;;
15142;SDS011;7672;50.834;6.286;2023-11-19T00:27:39;0.60;;;0.60;;
15142;SDS011;7672;50.834;6.286;2023-11-19T00:30:06;0.50;;;0.50;;
15142;SDS011;7672;50.834;6.286;2023-11-19T00:32:37;2.13;;;0.50;;
15142;SDS011;7672;50.834;6.286;2023-11-19T00:35:06;3.13;;;0.60;;
15142;SDS011;7672;50.834;6.286;2023-11-19T00:37:33;2.73;;;0.60;;
15142;SDS011;7672;50.834;6.286;2023-11-19T00:40:00;0.60;;;0.60;;
15142;SDS011;7672;50.834;6.286;2023-11-19T00:42:31;0.97;;;0.90;;
15142;SDS011;7672;50.834;6.286;2023-11-19T00:44:58;0.50;;;0.50;;
15142;SDS011;7672;50.834;6.286;2023-11-19T00:47:25;1.57;;;0.67;;
15142;SDS011;7672;50.834;6.286;2023-11-19T00:49:52;0.93;;;0.93;;
15142;SDS011;7672;50.834;6.286;2023-11-19T00:52:19;0.73;;;0.70;;
15142;SDS011;7672;50.834;6.286;2023-11-19T00:54:46;1.00;;;0.73;;
15142;SDS011;7672;50.834;6.286;2023-11-19T00:57:13;1.57;;;0.90;;
15142;SDS011;7672;50.834;6.286;2023-11-19T00:59:44;2.40;;;0.73;;
15142;SDS011;7672;50.834;6.286;2023-11-19T01:02:11;0.97;;;0.80;;
15142;SDS011;7672;50.834;6.286;2023-11-19T01:04:40;3.30;;;0.80;;
15142;SDS011;7672;50.834;6.286;2023-11-19T01:07:07;1.37;;;0.90;;
15142;SDS011;7672;50.834;6.286;2023-11-19T01:09:41;2.37;;;0.80;;
15142;SDS011;7672;50.834;6.286;2023-11-19T01:12:11;1.43;;;1.00;;
15142;SDS011;7672;50.834;6.286;2023-11-19T01:14:38;1.87;;;0.90;;
15142;SDS011;7672;50.834;6.286;2023-11-19T01:17:05;2.53;;;1.20;;
15142;SDS011;7672;50.834;6.286;2023-11-19T01:19:34;3.43;;;1.17;;
15142;SDS011;7672;50.834;6.286;2023-11-19T01:22:01;3.00;;;1.27;;
15142;SDS011;7672;50.834;6.286;2023-11-19T01:24:28;2.43;;;1.17;;
15142;SDS011;7672;50.834;6.286;2023-11-19T01:26:57;2.40;;;1.13;;
15142;SDS011;7672;50.834;6.286;2023-11-19T01:29:26;3.43;;;1.33;;
15142;SDS011;7672;50.834;6.286;2023-11-19T01:31:53;2.80;;;1.10;;
15142;SDS011;7672;50.834;6.286;2023-11-19T01:34:20;3.13;;;1.20;;
15142;SDS011;7672;50.834;6.286;2023-11-19T01:36:47;2.17;;;1.40;;
15142;SDS011;7672;50.834;6.286;2023-11-19T01:39:15;3.87;;;1.53;;
15142;SDS011;7672;50.834;6.286;2023-11-19T01:41:42;5.83;;;1.80;;
15142;SDS011;7672;50.834;6.286;2023-11-19T01:44:09;4.53;;;1.30;;
15142;SDS011;7672;50.834;6.286;2023-11-19T01:46:40;5.03;;;1.50;;
15142;SDS011;7672;50.834;6.286;2023-11-19T01:49:10;3.63;;;1.30;;
15142;SDS011;7672;50.834;6.286;2023-11-19T01:51:38;3.57;;;1.40;;
15142;SDS011;7672;50.834;6.286;2023-11-19T01:54:07;3.33;;;1.33;;
15142;SDS011;7672;50.834;6.286;2023-11-19T01:56:35;3.47;;;1.20;;
15142;SDS011;7672;50.834;6.286;2023-11-19T01:59:08;4.97;;;1.37;;
15142;SDS011;7672;50.834;6.286;2023-11-19T02:01:37;5.90;;;1.70;;
15142;SDS011;7672;50.834;6.286;2023-11-19T02:04:07;2.13;;;1.40;;
15142;SDS011;7672;50.834;6.286;2023-11-19T02:06:40;3.40;;;1.30;;
15142;SDS011;7672;50.834;6.286;2023-11-19T02:09:08;5.73;;;1.47;;
15142;SDS011;7672;50.834;6.286;2023-11-19T02:11:36;7.67;;;1.50;;
15142;SDS011;7672;50.834;6.286;2023-11-19T02:14:03;2.90;;;1.63;;
15142;SDS011;7672;50.834;6.286;2023-11-19T02:16:30;7.47;;;1.70;;
15142;SDS011;7672;50.834;6.286;2023-11-19T02:18:58;10.93;;;1.67;;
15142;SDS011;7672;50.834;6.286;2023-11-19T02:21:25;5.80;;;1.60;;
15142;SDS011;7672;50.834;6.286;2023-11-19T02:23:52;6.67;;;1.83;;
15142;SDS011;7672;50.834;6.286;2023-11-19T02:28:59;5.57;;;1.67;;
15142;SDS011;7672;50.834;6.286;2023-11-19T02:31:26;5.90;;;1.67;;
15142;SDS011;7672;50.834;6.286;2023-11-19T02:33:54;4.90;;;1.10;;
15142;SDS011;7672;50.834;6.286;2023-11-19T02:36:21;3.00;;;1.10;;
15142;SDS011;7672;50.834;6.286;2023-11-19T02:38:48;9.20;;;1.60;;
15142;SDS011;7672;50.834;6.286;2023-11-19T02:41:16;2.73;;;1.30;;
15142;SDS011;7672;50.834;6.286;2023-11-19T02:43:43;4.70;;;1.50;;
15142;SDS011;7672;50.834;6.286;2023-11-19T02:46:10;6.67;;;1.43;;
15142;SDS011;7672;50.834;6.286;2023-11-19T02:48:40;6.10;;;1.67;;
15142;SDS011;7672;50.834;6.286;2023-11-19T02:51:08;6.83;;;2.17;;
15142;SDS011;7672;50.834;6.286;2023-11-19T02:53:38;10.17;;;2.27;;
15142;SDS011;7672;50.834;6.286;2023-11-19T02:56:07;7.80;;;1.73;;
15142;SDS011;7672;50.834;6.286;2023-11-19T02:58:52;4.57;;;1.47;;
15142;SDS011;7672;50.834;6.286;2023-11-19T03:01:23;5.70;;;1.70;;
15142;SDS011;7672;50.834;6.286;2023-11-19T03:03:57;7.73;;;2.30;;
15142;SDS011;7672;50.834;6.286;2023-11-19T03:06:26;9.40;;;1.80;;
15142;SDS011;7672;50.834;6.286;2023-11-19T03:08:54;5.03;;;1.50;;
15142;SDS011;7672;50.834;6.286;2023-11-19T03:11:21;9.73;;;2.37;;
15142;SDS011;7672;50.834;6.286;2023-11-19T03:13:48;9.00;;;1.90;;
15142;SDS011;7672;50.834;6.286;2023-11-19T03:16:16;5.47;;;2.07;;
15142;SDS011;7672;50.834;6.286;2023-11-19T03:18:43;7.10;;;2.00;;
15142;SDS011;7672;50.834;6.286;2023-11-19T03:21:10;7.30;;;1.83;;
15142;SDS011;7672;50.834;6.286;2023-11-19T03:23:37;8.37;;;1.63;;
15142;SDS011;7672;50.834;6.286;2023-11-19T03:26:07;5.73;;;1.70;;
15142;SDS011;7672;50.834;6.286;2023-11-19T03:28:35;10.00;;;3.30;;
15142;SDS011;7672;50.834;6.286;2023-11-19T03:31:04;7.03;;;2.07;;
15142;SDS011;7672;50.834;6.286;2023-11-19T03:33:35;8.30;;;1.83;;
15142;SDS011;7672;50.834;6.286;2023-11-19T03:36:02;9.27;;;2.10;;
15142;SDS011;7672;50.834;6.286;2023-11-19T03:38:29;6.03;;;1.77;;
15142;SDS011;7672;50.834;6.286;2023-11-19T03:40:56;9.30;;;2.30;;
15142;SDS011;7672;50.834;6.286;2023-11-19T03:43:23;15.33;;;2.10;;
15142;SDS011;7672;50.834;6.286;2023-11-19T03:45:50;6.83;;;2.17;;
15142;SDS011;7672;50.834;6.286;2023-11-19T03:48:17;10.53;;;2.17;;
15142;SDS011;7672;50.834;6.286;2023-11-19T03:50:45;7.27;;;1.77;;
15142;SDS011;7672;50.834;6.286;2023-11-19T03:53:12;9.30;;;2.03;;
15142;SDS011;7672;50.834;6.286;2023-11-19T03:55:39;11.83;;;2.47;;
15142;SDS011;7672;50.834;6.286;2023-11-19T03:58:06;10.87;;;2.53;;
15142;SDS011;7672;50.834;6.286;2023-11-19T04:00:34;7.73;;;2.60;;
15142;SDS011;7672;50.834;6.286;2023-11-19T04:03:01;9.10;;;2.70;;
15142;SDS011;7672;50.834;6.286;2023-11-19T04:05:29;7.97;;;2.47;;
15142;SDS011;7672;50.834;6.286;2023-11-19T04:07:56;6.30;;;2.30;;
15142;SDS011;7672;50.834;6.286;2023-11-19T04:10:23;10.13;;;2.10;;
15142;SDS011;7672;50.834;6.286;2023-11-19T04:12:50;9.00;;;1.83;;
15142;SDS011;7672;50.834;6.286;2023-11-19T04:15:16;8.30;;;2.00;;
15142;SDS011;7672;50.834;6.286;2023-11-19T04:17:43;7.83;;;2.70;;
15142;SDS011;7672;50.834;6.286;2023-11-19T04:20:11;10.90;;;2.00;;
15142;SDS011;7672;50.834;6.286;2023-11-19T04:22:40;5.03;;;1.83;;
15142;SDS011;7672;50.834;6.286;2023-11-19T04:25:08;8.60;;;1.93;;
15142;SDS011;7672;50.834;6.286;2023-11-19T04:27:35;9.00;;;2.37;;
15142;SDS011;7672;50.834;6.286;2023-11-19T04:30:03;4.83;;;2.10;;
15142;SDS011;7672;50.834;6.286;2023-11-19T04:32:31;7.23;;;1.80;;
15142;SDS011;7672;50.834;6.286;2023-11-19T04:34:58;11.80;;;4.13;;
15142;SDS011;7672;50.834;6.286;2023-11-19T04:37:25;9.83;;;2.17;;
15142;SDS011;7672;50.834;6.286;2023-11-19T04:39:52;12.40;;;2.17;;
15142;SDS011;7672;50.834;6.286;2023-11-19T04:42:19;8.07;;;1.93;;
15142;SDS011;7672;50.834;6.286;2023-11-19T04:44:48;9.93;;;2.90;;
15142;SDS011;7672;50.834;6.286;2023-11-19T04:47:15;13.70;;;2.40;;
15142;SDS011;7672;50.834;6.286;2023-11-19T04:49:42;15.37;;;3.20;;
15142;SDS011;7672;50.834;6.286;2023-11-19T04:52:09;12.00;;;2.93;;
15142;SDS011;7672;50.834;6.286;2023-11-19T04:54:40;12.83;;;2.50;;
15142;SDS011;7672;50.834;6.286;2023-11-19T04:57:10;5.60;;;2.03;;
15142;SDS011;7672;50.834;6.286;2023-11-19T04:59:37;9.60;;;2.30;;
15142;SDS011;7672;50.834;6.286;2023-11-19T05:02:05;7.50;;;2.33;;
15142;SDS011;7672;50.834;6.286;2023-11-19T05:04:32;13.07;;;2.63;;
15142;SDS011;7672;50.834;6.286;2023-11-19T05:06:59;12.13;;;2.57;;
15142;SDS011;7672;50.834;6.286;2023-11-19T05:09:26;17.83;;;2.80;;
15142;SDS011;7672;50.834;6.286;2023-11-19T05:11:53;9.87;;;2.83;;
15142;SDS011;7672;50.834;6.286;2023-11-19T05:14:20;10.20;;;2.63;;
15142;SDS011;7672;50.834;6.286;2023-11-19T05:16:48;11.07;;;3.17;;
15142;SDS011;7672;50.834;6.286;2023-11-19T05:19:16;10.70;;;2.27;;
15142;SDS011;7672;50.834;6.286;2023-11-19T05:21:43;15.40;;;3.10;;
15142;SDS011;7672;50.834;6.286;2023-11-19T05:24:10;11.67;;;2.27;;
15142;SDS011;7672;50.834;6.286;2023-11-19T05:26:40;14.50;;;3.20;;
15142;SDS011;7672;50.834;6.286;2023-11-19T05:29:07;10.87;;;2.83;;
15142;SDS011;7672;50.834;6.286;2023-11-19T05:31:34;10.77;;;2.93;;
15142;SDS011;7672;50.834;6.286;2023-11-19T05:34:03;10.90;;;2.37;;
15142;SDS011;7672;50.834;6.286;2023-11-19T05:36:30;11.90;;;3.00;;
15142;SDS011;7672;50.834;6.286;2023-11-19T05:38:57;14.93;;;2.97;;
15142;SDS011;7672;50.834;6.286;2023-11-19T05:41:24;11.17;;;2.37;;
15142;SDS011;7672;50.834;6.286;2023-11-19T05:43:51;11.47;;;3.13;;
15142;SDS011;7672;50.834;6.286;2023-11-19T05:46:18;8.67;;;2.80;;
15142;SDS011;7672;50.834;6.286;2023-11-19T05:48:46;16.60;;;2.83;;
15142;SDS011;7672;50.834;6.286;2023-11-19T05:51:14;12.73;;;2.83;;
15142;SDS011;7672;50.834;6.286;2023-11-19T05:53:42;14.63;;;2.90;;
15142;SDS011;7672;50.834;6.286;2023-11-19T05:56:09;14.67;;;3.17;;
15142;SDS011;7672;50.834;6.286;2023-11-19T05:58:36;12.33;;;2.57;;
15142;SDS011;7672;50.834;6.286;2023-11-19T06:01:05;13.00;;;2.57;;
15142;SDS011;7672;50.834;6.286;2023-11-19T06:03:34;8.87;;;3.37;;
15142;SDS011;7672;50.834;6.286;2023-11-19T06:06:01;12.73;;;2.77;;
15142;SDS011;7672;50.834;6.286;2023-11-19T06:08:28;12.20;;;2.77;;
15142;SDS011;7672;50.834;6.286;2023-11-19T06:10:57;18.50;;;3.17;;
15142;SDS011;7672;50.834;6.286;2023-11-19T06:13:24;15.57;;;3.20;;
15142;SDS011;7672;50.834;6.286;2023-11-19T06:15:52;13.13;;;3.03;;
15142;SDS011;7672;50.834;6.286;2023-11-19T06:18:19;11.37;;;2.70;;
15142;SDS011;7672;50.834;6.286;2023-11-19T06:20:47;13.70;;;3.17;;
15142;SDS011;7672;50.834;6.286;2023-11-19T06:23:14;16.87;;;3.27;;
15142;SDS011;7672;50.834;6.286;2023-11-19T06:25:41;13.00;;;2.97;;
15142;SDS011;7672;50.834;6.286;2023-11-19T06:28:08;14.90;;;3.03;;
15142;SDS011;7672;50.834;6.286;2023-11-19T06:30:36;12.57;;;3.80;;
15142;SDS011;7672;50.834;6.286;2023-11-19T06:33:02;15.03;;;2.97;;
15142;SDS011;7672;50.834;6.286;2023-11-19T06:35:30;10.03;;;3.30;;
15142;SDS011;7672;50.834;6.286;2023-11-19T06:38:02;9.73;;;2.53;;
15142;SDS011;7672;50.834;6.286;2023-11-19T06:40:32;12.13;;;2.87;;
15142;SDS011;7672;50.834;6.286;2023-11-19T06:43:01;10.17;;;2.80;;
15142;SDS011;7672;50.834;6.286;2023-11-19T06:45:30;11.30;;;2.93;;
15142;SDS011;7672;50.834;6.286;2023-11-19T06:47:57;13.57;;;2.57;;
15142;SDS011;7672;50.834;6.286;2023-11-19T06:50:25;12.33;;;2.80;;
15142;SDS011;7672;50.834;6.286;2023-11-19T06:52:52;10.87;;;3.10;;
15142;SDS011;7672;50.834;6.286;2023-11-19T06:55:18;15.57;;;3.03;;
15142;SDS011;7672;50.834;6.286;2023-11-19T06:57:45;12.93;;;4.10;;
15142;SDS011;7672;50.834;6.286;2023-11-19T07:00:12;14.70;;;3.00;;
15142;SDS011;7672;50.834;6.286;2023-11-19T07:02:39;12.87;;;3.20;;
15142;SDS011;7672;50.834;6.286;2023-11-19T07:05:06;19.90;;;3.93;;
15142;SDS011;7672;50.834;6.286;2023-11-19T07:07:34;22.70;;;3.40;;
15142;SDS011;7672;50.834;6.286;2023-11-19T07:10:02;12.20;;;2.90;;
15142;SDS011;7672;50.834;6.286;2023-11-19T07:12:30;10.67;;;2.60;;
15142;SDS011;7672;50.834;6.286;2023-11-19T07:14:57;14.40;;;3.30;;
15142;SDS011;7672;50.834;6.286;2023-11-19T07:17:24;17.37;;;3.50;;
15142;SDS011;7672;50.834;6.286;2023-11-19T07:19:51;15.10;;;4.00;;
15142;SDS011;7672;50.834;6.286;2023-11-19T07:22:18;19.90;;;3.57;;
15142;SDS011;7672;50.834;6.286;2023-11-19T07:24:46;11.33;;;3.37;;
15142;SDS011;7672;50.834;6.286;2023-11-19T07:27:14;22.23;;;3.40;;
15142;SDS011;7672;50.834;6.286;2023-11-19T07:29:43;16.87;;;4.70;;
15142;SDS011;7672;50.834;6.286;2023-11-19T07:32:11;17.07;;;3.57;;
15142;SDS011;7672;50.834;6.286;2023-11-19T07:34:39;14.13;;;3.57;;
15142;SDS011;7672;50.834;6.286;2023-11-19T07:37:06;15.97;;;3.67;;
15142;SDS011;7672;50.834;6.286;2023-11-19T07:39:33;9.87;;;2.47;;
15142;SDS011;7672;50.834;6.286;2023-11-19T07:42:01;18.40;;;3.97;;
15142;SDS011;7672;50.834;6.286;2023-11-19T07:44:28;20.30;;;4.03;;
15142;SDS011;7672;50.834;6.286;2023-11-19T07:46:55;11.03;;;3.20;;
15142;SDS011;7672;50.834;6.286;2023-11-19T07:49:23;11.60;;;3.33;;
15142;SDS011;7672;50.834;6.286;2023-11-19T07:51:50;18.93;;;3.73;;
15142;SDS011;7672;50.834;6.286;2023-11-19T07:54:17;18.30;;;4.00;;
15142;SDS011;7672;50.834;6.286;2023-11-19T07:56:44;12.73;;;3.70;;
15142;SDS011;7672;50.834;6.286;2023-11-19T07:59:11;13.20;;;3.47;;
15142;SDS011;7672;50.834;6.286;2023-11-19T08:01:38;13.10;;;3.30;;
15142;SDS011;7672;50.834;6.286;2023-11-19T08:04:05;14.77;;;2.97;;
15142;SDS011;7672;50.834;6.286;2023-11-19T08:06:32;21.77;;;4.10;;
15142;SDS011;7672;50.834;6.286;2023-11-19T08:08:59;30.03;;;4.57;;
15142;SDS011;7672;50.834;6.286;2023-11-19T08:11:26;16.33;;;3.53;;
15142;SDS011;7672;50.834;6.286;2023-11-19T08:13:53;14.20;;;3.10;;
15142;SDS011;7672;50.834;6.286;2023-11-19T08:16:20;21.10;;;5.70;;
15142;SDS011;7672;50.834;6.286;2023-11-19T08:18:47;15.73;;;3.97;;
15142;SDS011;7672;50.834;6.286;2023-11-19T08:21:13;17.00;;;3.03;;
15142;SDS011;7672;50.834;6.286;2023-11-19T08:23:41;14.40;;;3.77;;
15142;SDS011;7672;50.834;6.286;2023-11-19T08:26:08;16.83;;;3.77;;
15142;SDS011;7672;50.834;6.286;2023-11-19T08:28:36;23.80;;;4.73;;
15142;SDS011;7672;50.834;6.286;2023-11-19T08:31:04;14.47;;;3.40;;
15142;SDS011;7672;50.834;6.286;2023-11-19T08:33:32;17.73;;;3.00;;
15142;SDS011;7672;50.834;6.286;2023-11-19T08:35:59;21.63;;;3.77;;
15142;SDS011;7672;50.834;6.286;2023-11-19T08:38:27;13.47;;;3.30;;
15142;SDS011;7672;50.834;6.286;2023-11-19T08:40:57;13.63;;;3.47;;
15142;SDS011;7672;50.834;6.286;2023-11-19T08:43:27;13.13;;;3.10;;
15142;SDS011;7672;50.834;6.286;2023-11-19T08:45:54;10.00;;;3.30;;
15142;SDS011;7672;50.834;6.286;2023-11-19T08:48:21;18.03;;;3.33;;
15142;SDS011;7672;50.834;6.286;2023-11-19T08:50:48;16.30;;;4.40;;
15142;SDS011;7672;50.834;6.286;2023-11-19T08:53:16;17.03;;;4.10;;
15142;SDS011;7672;50.834;6.286;2023-11-19T08:55:43;17.93;;;4.80;;
15142;SDS011;7672;50.834;6.286;2023-11-19T08:58:10;21.15;;;4.78;;
15142;SDS011;7672;50.834;6.286;2023-11-19T09:00:36;15.97;;;4.27;;
15142;SDS011;7672;50.834;6.286;2023-11-19T09:03:03;20.08;;;4.30;;
15142;SDS011;7672;50.834;6.286;2023-11-19T09:05:30;16.27;;;4.00;;
15142;SDS011;7672;50.834;6.286;2023-11-19T09:07:57;12.98;;;4.07;;
15142;SDS011;7672;50.834;6.286;2023-11-19T09:10:25;19.08;;;5.28;;
15142;SDS011;7672;50.834;6.286;2023-11-19T09:12:53;20.15;;;4.55;;
15142;SDS011;7672;50.834;6.286;2023-11-19T09:15:24;16.60;;;4.68;;
15142;SDS011;7672;50.834;6.286;2023-11-19T09:17:51;17.83;;;4.25;;
15142;SDS011;7672;50.834;6.286;2023-11-19T09:20:18;17.23;;;4.43;;
15142;SDS011;7672;50.834;6.286;2023-11-19T09:22:45;12.45;;;3.35;;
15142;SDS011;7672;50.834;6.286;2023-11-19T09:25:12;12.88;;;4.25;;
15142;SDS011;7672;50.834;6.286;2023-11-19T09:27:43;18.92;;;4.45;;
15142;SDS011;7672;50.834;6.286;2023-11-19T09:30:11;18.23;;;4.43;;
15142;SDS011;7672;50.834;6.286;2023-11-19T09:32:39;15.35;;;4.40;;
15142;SDS011;7672;50.834;6.286;2023-11-19T09:35:07;24.20;;;4.85;;
15142;SDS011;7672;50.834;6.286;2023-11-19T09:37:35;13.20;;;3.72;;
15142;SDS011;7672;50.834;6.286;2023-11-19T09:40:02;16.23;;;4.57;;
15142;SDS011;7672;50.834;6.286;2023-11-19T09:42:30;11.30;;;4.25;;
15142;SDS011;7672;50.834;6.286;2023-11-19T09:45:05;17.33;;;4.93;;
15142;SDS011;7672;50.834;6.286;2023-11-19T09:47:45;15.00;;;4.55;;
15142;SDS011;7672;50.834;6.286;2023-11-19T09:50:17;17.80;;;6.15;;
15142;SDS011;7672;50.834;6.286;2023-11-19T09:52:46;17.73;;;4.47;;
15142;SDS011;7672;50.834;6.286;2023-11-19T09:55:14;13.68;;;4.40;;
15142;SDS011;7672;50.834;6.286;2023-11-19T09:57:46;15.57;;;4.43;;
15142;SDS011;7672;50.834;6.286;2023-11-19T10:00:18;12.85;;;3.92;;
15142;SDS011;7672;50.834;6.286;2023-11-19T10:02:48;18.63;;;4.65;;
15142;SDS011;7672;50.834;6.286;2023-11-19T10:05:17;10.20;;;3.47;;
15142;SDS011;7672;50.834;6.286;2023-11-19T10:07:47;14.48;;;3.90;;
15142;SDS011;7672;50.834;6.286;2023-11-19T10:10:14;15.38;;;4.40;;
15142;SDS011;7672;50.834;6.286;2023-11-19T10:12:45;16.80;;;4.25;;
15142;SDS011;7672;50.834;6.286;2023-11-19T10:15:22;9.73;;;3.58;;
15142;SDS011;7672;50.834;6.286;2023-11-19T10:17:57;14.32;;;4.25;;
15142;SDS011;7672;50.834;6.286;2023-11-19T10:20:24;14.98;;;3.95;;
15142;SDS011;7672;50.834;6.286;2023-11-19T10:22:52;12.55;;;4.22;;
15142;SDS011;7672;50.834;6.286;2023-11-19T10:25:21;11.35;;;4.32;;
15142;SDS011;7672;50.834;6.286;2023-11-19T10:27:50;11.77;;;4.03;;
15142;SDS011;7672;50.834;6.286;2023-11-19T10:30:20;13.88;;;3.97;;
15142;SDS011;7672;50.834;6.286;2023-11-19T10:35:51;13.95;;;3.92;;
15142;SDS011;7672;50.834;6.286;2023-11-19T10:38:22;13.23;;;3.95;;
15142;SDS011;7672;50.834;6.286;2023-11-19T10:40:50;12.05;;;4.18;;
15142;SDS011;7672;50.834;6.286;2023-11-19T10:43:18;12.82;;;3.55;;
15142;SDS011;7672;50.834;6.286;2023-11-19T10:45:46;16.05;;;4.60;;
15142;SDS011;7672;50.834;6.286;2023-11-19T10:48:13;13.32;;;4.47;;
15142;SDS011;7672;50.834;6.286;2023-11-19T10:50:40;18.35;;;6.18;;
15142;SDS011;7672;50.834;6.286;2023-11-19T10:53:09;16.30;;;3.95;;
15142;SDS011;7672;50.834;6.286;2023-11-19T10:55:39;12.43;;;4.35;;
15142;SDS011;7672;50.834;6.286;2023-11-19T10:58:09;14.20;;;4.00;;
15142;SDS011;7672;50.834;6.286;2023-11-19T11:00:47;13.43;;;3.55;;
15142;SDS011;7672;50.834;6.286;2023-11-19T11:03:19;13.05;;;4.18;;
15142;SDS011;7672;50.834;6.286;2023-11-19T11:05:47;11.25;;;3.33;;
15142;SDS011;7672;50.834;6.286;2023-11-19T11:08:16;7.85;;;2.95;;
15142;SDS011;7672;50.834;6.286;2023-11-19T11:10:53;12.20;;;3.15;;
15142;SDS011;7672;50.834;6.286;2023-11-19T11:13:23;11.30;;;2.92;;
15142;SDS011;7672;50.834;6.286;2023-11-19T11:15:53;12.45;;;3.00;;
15142;SDS011;7672;50.834;6.286;2023-11-19T11:18:24;13.02;;;2.85;;
15142;SDS011;7672;50.834;6.286;2023-11-19T11:20:52;11.80;;;3.63;;
15142;SDS011;7672;50.834;6.286;2023-11-19T11:32:27;16.15;;;4.00;;
15142;SDS011;7672;50.834;6.286;2023-11-19T11:35:08;12.18;;;3.83;;
15142;SDS011;7672;50.834;6.286;2023-11-19T11:37:49;16.48;;;3.83;;
15142;SDS011;7672;50.834;6.286;2023-11-19T11:40:21;10.95;;;3.85;;
15142;SDS011;7672;50.834;6.286;2023-11-19T11:42:50;12.85;;;4.13;;
15142;SDS011;7672;50.834;6.286;2023-11-19T11:45:30;13.80;;;3.70;;
15142;SDS011;7672;50.834;6.286;2023-11-19T11:48:08;10.98;;;3.50;;
15142;SDS011;7672;50.834;6.286;2023-11-19T11:50:53;13.77;;;3.90;;
15142;SDS011;7672;50.834;6.286;2023-11-19T11:53:23;11.68;;;3.40;;
15142;SDS011;7672;50.834;6.286;2023-11-19T11:55:52;12.68;;;3.38;;
15142;SDS011;7672;50.834;6.286;2023-11-19T11:58:26;13.45;;;3.95;;
15142;SDS011;7672;50.834;6.286;2023-11-19T12:00:57;14.00;;;3.85;;
15142;SDS011;7672;50.834;6.286;2023-11-19T12:03:26;11.75;;;3.85;;
15142;SDS011;7672;50.834;6.286;2023-11-19T12:05:55;14.25;;;3.95;;
15142;SDS011;7672;50.834;6.286;2023-11-19T12:08:24;9.55;;;3.28;;
15142;SDS011;7672;50.834;6.286;2023-11-19T12:10:54;12.05;;;3.22;;
15142;SDS011;7672;50.834;6.286;2023-11-19T12:13:28;10.50;;;3.35;;
15142;SDS011;7672;50.834;6.286;2023-11-19T12:16:28;9.48;;;3.38;;
15142;SDS011;7672;50.834;6.286;2023-11-19T12:18:57;10.23;;;2.88;;
15142;SDS011;7672;50.834;6.286;2023-11-19T12:21:31;8.48;;;3.17;;
15142;SDS011;7672;50.834;6.286;2023-11-19T12:23:59;12.52;;;3.30;;
15142;SDS011;7672;50.834;6.286;2023-11-19T12:26:34;10.43;;;3.00;;
15142;SDS011;7672;50.834;6.286;2023-11-19T12:29:03;12.03;;;2.67;;
15142;SDS011;7672;50.834;6.286;2023-11-19T12:31:34;11.07;;;3.60;;
15142;SDS011;7672;50.834;6.286;2023-11-19T12:34:05;13.37;;;3.67;;
15142;SDS011;7672;50.834;6.286;2023-11-19T12:36:33;11.27;;;3.23;;
15142;SDS011;7672;50.834;6.286;2023-11-19T12:39:01;13.70;;;3.43;;
15142;SDS011;7672;50.834;6.286;2023-11-19T12:41:28;13.07;;;3.67;;
15142;SDS011;7672;50.834;6.286;2023-11-19T12:44:08;15.17;;;3.73;;
15142;SDS011;7672;50.834;6.286;2023-11-19T12:46:37;13.50;;;3.90;;
15142;SDS011;7672;50.834;6.286;2023-11-19T12:49:04;13.37;;;3.70;;
15142;SDS011;7672;50.834;6.286;2023-11-19T12:51:32;13.17;;;3.43;;
15142;SDS011;7672;50.834;6.286;2023-11-19T12:53:59;14.70;;;3.33;;
15142;SDS011;7672;50.834;6.286;2023-11-19T12:56:26;11.30;;;2.93;;
15142;SDS011;7672;50.834;6.286;2023-11-19T12:58:53;13.80;;;3.57;;
15142;SDS011;7672;50.834;6.286;2023-11-19T13:01:20;16.17;;;3.53;;
15142;SDS011;7672;50.834;6.286;2023-11-19T13:03:48;13.73;;;3.87;;
15142;SDS011;7672;50.834;6.286;2023-11-19T13:06:16;10.90;;;3.30;;
15142;SDS011;7672;50.834;6.286;2023-11-19T13:08:47;16.03;;;4.00;;
15142;SDS011;7672;50.834;6.286;2023-11-19T13:11:29;14.00;;;3.87;;
15142;SDS011;7672;50.834;6.286;2023-11-19T13:13:58;12.07;;;3.53;;
15142;SDS011;7672;50.834;6.286;2023-11-19T13:16:32;14.27;;;3.23;;
15142;SDS011;7672;50.834;6.286;2023-11-19T13:18:59;17.53;;;3.97;;
15142;SDS011;7672;50.834;6.286;2023-11-19T13:21:27;15.20;;;3.57;;
15142;SDS011;7672;50.834;6.286;2023-11-19T13:23:54;18.43;;;4.17;;
15142;SDS011;7672;50.834;6.286;2023-11-19T13:26:21;15.67;;;4.00;;
15142;SDS011;7672;50.834;6.286;2023-11-19T13:28:49;14.63;;;4.03;;
15142;SDS011;7672;50.834;6.286;2023-11-19T13:31:16;13.83;;;4.13;;
15142;SDS011;7672;50.834;6.286;2023-11-19T13:33:43;15.70;;;4.50;;
15142;SDS011;7672;50.834;6.286;2023-11-19T13:36:10;16.97;;;4.53;;
15142;SDS011;7672;50.834;6.286;2023-11-19T13:38:42;17.10;;;3.80;;
15142;SDS011;7672;50.834;6.286;2023-11-19T13:41:10;15.53;;;3.13;;
15142;SDS011;7672;50.834;6.286;2023-11-19T13:43:39;17.50;;;3.90;;
15142;SDS011;7672;50.834;6.286;2023-11-19T13:46:06;14.30;;;3.77;;
15142;SDS011;7672;50.834;6.286;2023-11-19T13:48:36;16.20;;;3.33;;
15142;SDS011;7672;50.834;6.286;2023-11-19T13:51:03;11.80;;;3.13;;
15142;SDS011;7672;50.834;6.286;2023-11-19T13:53:32;15.97;;;3.60;;
15142;SDS011;7672;50.834;6.286;2023-11-19T13:56:17;8.23;;;3.07;;
15142;SDS011;7672;50.834;6.286;2023-11-19T13:58:44;12.13;;;3.33;;
15142;SDS011;7672;50.834;6.286;2023-11-19T14:01:11;11.10;;;3.00;;
15142;SDS011;7672;50.834;6.286;2023-11-19T14:03:40;19.53;;;3.13;;
15142;SDS011;7672;50.834;6.286;2023-11-19T14:06:09;12.20;;;3.23;;
15142;SDS011;7672;50.834;6.286;2023-11-19T14:08:36;14.57;;;3.73;;
15142;SDS011;7672;50.834;6.286;2023-11-19T14:11:04;10.77;;;3.07;;
15142;SDS011;7672;50.834;6.286;2023-11-19T14:13:32;16.20;;;3.73;;
15142;SDS011;7672;50.834;6.286;2023-11-19T14:15:59;13.40;;;3.80;;
15142;SDS011;7672;50.834;6.286;2023-11-19T14:18:27;13.93;;;4.03;;
15142;SDS011;7672;50.834;6.286;2023-11-19T14:20:54;16.30;;;3.50;;
15142;SDS011;7672;50.834;6.286;2023-11-19T14:23:21;14.93;;;3.90;;
15142;SDS011;7672;50.834;6.286;2023-11-19T14:25:48;14.07;;;3.63;;
15142;SDS011;7672;50.834;6.286;2023-11-19T14:28:16;13.83;;;3.40;;
15142;SDS011;7672;50.834;6.286;2023-11-19T14:30:43;15.87;;;3.77;;
15142;SDS011;7672;50.834;6.286;2023-11-19T14:33:11;16.43;;;3.53;;
15142;SDS011;7672;50.834;6.286;2023-11-19T14:35:38;12.47;;;3.07;;
15142;SDS011;7672;50.834;6.286;2023-11-19T14:38:05;14.97;;;3.17;;
15142;SDS011;7672;50.834;6.286;2023-11-19T14:40:35;11.10;;;3.30;;
15142;SDS011;7672;50.834;6.286;2023-11-19T14:43:05;12.27;;;2.87;;
15142;SDS011;7672;50.834;6.286;2023-11-19T14:45:32;14.77;;;3.63;;
15142;SDS011;7672;50.834;6.286;2023-11-19T14:48:10;12.37;;;3.30;;
15142;SDS011;7672;50.834;6.286;2023-11-19T14:50:37;14.73;;;3.87;;
15142;SDS011;7672;50.834;6.286;2023-11-19T14:53:04;13.37;;;3.73;;
15142;SDS011;7672;50.834;6.286;2023-11-19T14:55:31;13.67;;;3.37;;
15142;SDS011;7672;50.834;6.286;2023-11-19T14:57:58;15.47;;;3.70;;
15142;SDS011;7672;50.834;6.286;2023-11-19T15:00:35;11.47;;;3.30;;
15142;SDS011;7672;50.834;6.286;2023-11-19T15:03:02;15.57;;;3.40;;
15142;SDS011;7672;50.834;6.286;2023-11-19T15:05:29;14.17;;;3.23;;
15142;SDS011;7672;50.834;6.286;2023-11-19T15:07:56;15.77;;;4.17;;
15142;SDS011;7672;50.834;6.286;2023-11-19T15:10:23;12.30;;;3.50;;
15142;SDS011;7672;50.834;6.286;2023-11-19T15:12:51;10.60;;;3.27;;
15142;SDS011;7672;50.834;6.286;2023-11-19T15:15:20;14.70;;;3.60;;